Vegreville, Canada
Current Conditions -  °F | °C
As of 5:01 PM on Friday 31 Oct 2014 (Local Time) from CYED Reporting Station
Light Rain Light Rain  
Wind Chill: 31°   Ceiling: 2200
Heat Index: 37°   Visibility: 3mi
Dew Point: 36°   Wind: 8mph
Humidity: 93%   Direction: 350°N
Pressure: 29.62"   Gusts: NA
Location:  53.5°N, 112.05°W
Report Text: CYED 312301Z AUTO 35007KT 3SM -RA FEW009 OVC022 OVC073 03/02 A2962
Loading
Personal Weather Stations






























Interactive Weather Map
Tropical Storm Tracking
New forecast layout! Learn more

10-Day Weather Forecast

Advertisements
Track Severe Weather on mobile